Nearby METAR Reports

 

EBAW - Antwerpen, Belgium
Distance from station: NW 22km
Updated: 2018-06-21 08:20
Mostly cloudy
Mostly cloudy
 Wind from NW
Wind: NW 30 km/h
Temperature: 15°C
Dew Point: 11°C
Humidity: 77%
Barometer: 1018 hPa
Clouds: Mostly cloudy
Visibility: 10 km
Cloud details: Few Clouds 427 m
Mostly cloudy 579 m
2018/06/21 06:20 EBAW 210620Z 32016KT 9999 FEW014 BKN019 15/11 Q1018 NOSIG
EBBR - Brussel, Belgium
Distance from station: SW 24km
Updated: 2018-06-21 08:20
Mostly cloudy
Mostly cloudy
 Wind from NW
Wind: NW 28 km/h
Temperature: 15°C
Dew Point: 11°C
Humidity: 77%
Barometer: 1019 hPa
Clouds: Mostly cloudy
Visibility: 10 km
Cloud details: Mostly cloudy 457 m
2018/06/21 06:20 EBBR 210620Z 32015KT 9999 BKN015 15/11 Q1019 NOSIG
 
EBDT - Schaffen, Belgium
Distance from station: ESE 26km
Updated: 2018-06-21 08:25
Light rain, Mostly cloudy
Light rain, Mostly cloudy
 Wind from NW
Wind: NW 19 km/h
Temperature: 16°C
Dew Point: 13°C
Humidity: 83%
Barometer: 1018 hPa
Summary: Light rain
Clouds: Mostly cloudy
Visibility: 10 km
Cloud details: Few Clouds 396 m
Partly cloudy 579 m
Mostly cloudy 823 m
2018/06/21 06:25 EBDT 210625Z 32010KT 9999 -RA FEW013 SCT019 BKN027 16/13 Q1018 WHT WHT BECMG BLU
EBBE - Beauvechain, Belgium
Distance from station: S 36km
Updated: 2018-06-21 08:25
Mostly cloudy
Mostly cloudy
 Wind from WNW
Wind: WNW 20 km/h
Temperature: 16°C
Dew Point: 13°C
Humidity: 83%
Barometer: 1018 hPa
Clouds: Mostly cloudy
Visibility: 10 km
Cloud details: Few Clouds 366 m
Mostly cloudy 457 m
Mostly cloudy 671 m
2018/06/21 06:25 EBBE 210625Z 30011KT 9999 FEW012 BKN015 BKN022 16/13 Q1018 WHT WHT TEMPO GRN
 
EHWO - Woensdrecht Rnla, Netherlands
Distance from station: NNW 50km
Updated: 2018-06-21 08:25
Overcast
Overcast
 Wind from WNW
Wind: WNW 22 km/h
Temperature: 14°C
Dew Point: 10°C
Humidity: 77%
Barometer: 1018 hPa
Clouds: Overcast
Visibility: 10 km
Cloud details: Few Clouds 518 m
Mostly cloudy 732 m
Overcast 853 m
2018/06/21 06:25 EHWO 210625Z AUTO 30012KT 240V350 9999 FEW017 BKN024 OVC028 14/10 Q1018 WHT 30013KT 9999 FEW012 SCT014 BKN035 BECMG 32015G28KT BKN025
EBBL - Kleine-Brogel, Belgium
Distance from station: ENE 54km
Updated: 2018-06-21 08:25
Mostly cloudy
Mostly cloudy
 Wind from WNW
Wind: WNW 19 km/h, Gust: 37 km/h
Temperature: 17°C
Dew Point: 12°C
Humidity: 73%
Barometer: 1017 hPa
Clouds: Mostly cloudy
Visibility: 10 km
Cloud details: Partly cloudy 457 m
Mostly cloudy 1219 m
2018/06/21 06:25 EBBL 210625Z 30010G20KT 9999 SCT015 BKN040 17/12 Q1017 WHT WHT BECMG BLU
 
EHGR - Gilze-Rijen Rnla, Netherlands
Distance from station: NNE 57km
Updated: 2018-06-21 08:26
Overcast
Overcast
 Wind from WNW
Wind: WNW 22 km/h
Temperature: 15°C
Dew Point: 10°C
Humidity: 72%
Barometer: 1017 hPa
Clouds: Overcast
Visibility: 10 km
Cloud details: Partly cloudy 610 m
Overcast 701 m
2018/06/21 06:26 EHGR 210626Z AUTO 30012KT 270V340 9999 SCT020 OVC023 15/10 Q1017 WHT 31012G22KT 9999 BKN025
EHEH - Eindhoven Rnlafb, Netherlands
Distance from station: NE 63km
Updated: 2018-06-21 08:25
Overcast
Overcast
 Wind from WNW
Wind: WNW 20 km/h
Temperature: 16°C
Dew Point: 12°C
Humidity: 77%
Barometer: 1017 hPa
Clouds: Overcast
Visibility: 10 km
Cloud details: Partly cloudy 488 m
Mostly cloudy 610 m
Overcast 884 m
2018/06/21 06:25 EHEH 210625Z AUTO 30011KT 240V360 9999 SCT016 BKN020 OVC029 16/12 Q1017 WHT 30008G18KT 9999 FEW010 SCT012 BKN030
 
EBCI - Charleroi, Belgium
Distance from station: SSW 70km
Updated: 2018-06-21 08:20
Mostly cloudy
Mostly cloudy
 Wind from W
Wind: W 13 km/h
Temperature: 15°C
Dew Point: 14°C
Humidity: 94%
Barometer: 1019 hPa
Clouds: Mostly cloudy
Visibility: 7 km
Cloud details: Partly cloudy 152 m
Mostly cloudy 244 m
2018/06/21 06:20 EBCI 210620Z 28007KT 240V320 7000 SCT005 BKN008 15/14 Q1019 NOSIG
EBLG - Bierset, Belgium
Distance from station: SE 72km
Updated: 2018-06-21 08:20
Light drizzle, Mostly cloudy
Light drizzle, Mostly cloudy
 Wind from W
Wind: W 17 km/h
Temperature: 15°C
Dew Point: 14°C
Humidity: 94%
Barometer: 1018 hPa
Summary: Light Drizzle
Clouds: Mostly cloudy
Visibility: 3 km
Cloud details: Mostly cloudy 183 m
2018/06/21 06:20 EBLG 210620Z 27009KT 3000 -DZ BKN006 15/14 Q1018 BECMG 6000 NSW BKN012